sensor_id;sensor_type;location;lat;lon;timestamp;pressure;altitude;pressure_sealevel;temperature;humidity
16094;BME280;8151;47.824;12.092;2023-04-01T00:01:26;95132.53;;;9.42;66.96
16094;BME280;8151;47.824;12.092;2023-04-01T00:03:54;95124.00;;;9.40;67.07
16094;BME280;8151;47.824;12.092;2023-04-01T00:06:23;95127.66;;;9.39;67.49
16094;BME280;8151;47.824;12.092;2023-04-01T00:08:52;95117.28;;;9.37;67.40
16094;BME280;8151;47.824;12.092;2023-04-01T00:11:22;95123.56;;;9.36;67.77
16094;BME280;8151;47.824;12.092;2023-04-01T00:13:52;95126.19;;;9.36;67.59
16094;BME280;8151;47.824;12.092;2023-04-01T00:16:21;95136.97;;;9.35;67.42
16094;BME280;8151;47.824;12.092;2023-04-01T00:18:51;95146.47;;;9.29;67.86
16094;BME280;8151;47.824;12.092;2023-04-01T00:21:20;95133.81;;;9.24;68.06
16094;BME280;8151;47.824;12.092;2023-04-01T00:23:50;95149.25;;;9.21;68.14
16094;BME280;8151;47.824;12.092;2023-04-01T00:26:20;95156.72;;;9.17;68.62
16094;BME280;8151;47.824;12.092;2023-04-01T00:28:54;95163.56;;;9.12;68.98
16094;BME280;8151;47.824;12.092;2023-04-01T00:31:24;95165.13;;;9.06;69.15
16094;BME280;8151;47.824;12.092;2023-04-01T00:34:03;95169.50;;;8.99;69.01
16094;BME280;8151;47.824;12.092;2023-04-01T00:36:31;95165.00;;;8.93;69.68
16094;BME280;8151;47.824;12.092;2023-04-01T00:39:00;95159.66;;;8.86;69.80
16094;BME280;8151;47.824;12.092;2023-04-01T00:41:28;95166.50;;;8.80;69.99
16094;BME280;8151;47.824;12.092;2023-04-01T00:46:50;95158.25;;;8.69;70.68
16094;BME280;8151;47.824;12.092;2023-04-01T00:49:22;95151.53;;;8.66;71.17
16094;BME280;8151;47.824;12.092;2023-04-01T00:51:53;95140.72;;;8.61;71.31
16094;BME280;8151;47.824;12.092;2023-04-01T00:54:24;95137.25;;;8.60;71.97
16094;BME280;8151;47.824;12.092;2023-04-01T00:56:55;95119.25;;;8.64;71.63
16094;BME280;8151;47.824;12.092;2023-04-01T00:59:29;95108.97;;;8.69;71.82
16094;BME280;8151;47.824;12.092;2023-04-01T01:01:59;95100.88;;;8.71;71.88
16094;BME280;8151;47.824;12.092;2023-04-01T01:04:30;95089.72;;;8.69;72.51
16094;BME280;8151;47.824;12.092;2023-04-01T01:07:09;95090.88;;;8.66;72.65
16094;BME280;8151;47.824;12.092;2023-04-01T01:09:44;95086.00;;;8.63;72.92
16094;BME280;8151;47.824;12.092;2023-04-01T01:12:19;95085.38;;;8.61;72.87
16094;BME280;8151;47.824;12.092;2023-04-01T01:14:54;95088.19;;;8.59;73.29
16094;BME280;8151;47.824;12.092;2023-04-01T01:17:33;95080.47;;;8.58;73.63
16094;BME280;8151;47.824;12.092;2023-04-01T01:20:40;95082.72;;;8.61;73.90
16094;BME280;8151;47.824;12.092;2023-04-01T01:23:42;95079.06;;;8.62;73.84
16094;BME280;8151;47.824;12.092;2023-04-01T01:26:49;95077.25;;;8.62;74.06
16094;BME280;8151;47.824;12.092;2023-04-01T01:29:35;95082.34;;;8.64;73.77
16094;BME280;8151;47.824;12.092;2023-04-01T01:32:18;95079.06;;;8.62;73.86
16094;BME280;8151;47.824;12.092;2023-04-01T01:34:53;95081.44;;;8.57;74.02
16094;BME280;8151;47.824;12.092;2023-04-01T01:37:26;95082.81;;;8.53;74.40
16094;BME280;8151;47.824;12.092;2023-04-01T01:39:58;95091.56;;;8.53;74.18
16094;BME280;8151;47.824;12.092;2023-04-01T01:42:31;95094.50;;;8.43;74.94
16094;BME280;8151;47.824;12.092;2023-04-01T01:45:02;95090.94;;;8.36;75.04
16094;BME280;8151;47.824;12.092;2023-04-01T01:47:33;95074.69;;;8.33;75.67
16094;BME280;8151;47.824;12.092;2023-04-01T01:50:04;95076.13;;;8.35;75.48
16094;BME280;8151;47.824;12.092;2023-04-01T01:52:35;95065.03;;;8.40;75.34
16094;BME280;8151;47.824;12.092;2023-04-01T01:55:24;95085.41;;;8.46;75.24
16094;BME280;8151;47.824;12.092;2023-04-01T01:57:55;95079.97;;;8.47;74.81
16094;BME280;8151;47.824;12.092;2023-04-01T02:00:27;95077.09;;;8.49;74.77
16094;BME280;8151;47.824;12.092;2023-04-01T02:02:57;95086.31;;;8.53;74.74
16094;BME280;8151;47.824;12.092;2023-04-01T02:05:27;95092.00;;;8.57;74.20
16094;BME280;8151;47.824;12.092;2023-04-01T02:08:03;95095.72;;;8.62;74.72
16094;BME280;8151;47.824;12.092;2023-04-01T02:10:36;95103.81;;;8.61;74.77
16094;BME280;8151;47.824;12.092;2023-04-01T02:13:10;95099.19;;;8.63;74.92
16094;BME280;8151;47.824;12.092;2023-04-01T02:15:45;95101.41;;;8.66;74.28
16094;BME280;8151;47.824;12.092;2023-04-01T02:18:19;95106.69;;;8.66;74.16
16094;BME280;8151;47.824;12.092;2023-04-01T02:20:48;95103.06;;;8.67;74.39
16094;BME280;8151;47.824;12.092;2023-04-01T02:23:19;95097.03;;;8.73;74.44
16094;BME280;8151;47.824;12.092;2023-04-01T02:25:48;95107.22;;;8.76;74.55
16094;BME280;8151;47.824;12.092;2023-04-01T02:28:17;95109.88;;;8.76;74.23
16094;BME280;8151;47.824;12.092;2023-04-01T02:30:48;95096.88;;;8.75;74.53
16094;BME280;8151;47.824;12.092;2023-04-01T02:33:19;95096.03;;;8.74;74.55
16094;BME280;8151;47.824;12.092;2023-04-01T02:35:47;95101.50;;;8.73;75.02
16094;BME280;8151;47.824;12.092;2023-04-01T02:38:17;95107.50;;;8.66;75.02
16094;BME280;8151;47.824;12.092;2023-04-01T02:40:48;95105.06;;;8.65;75.28
16094;BME280;8151;47.824;12.092;2023-04-01T02:43:17;95110.53;;;8.63;74.86
16094;BME280;8151;47.824;12.092;2023-04-01T02:45:46;95111.53;;;8.62;74.64
16094;BME280;8151;47.824;12.092;2023-04-01T02:48:15;95118.00;;;8.60;74.76
16094;BME280;8151;47.824;12.092;2023-04-01T02:50:43;95119.38;;;8.56;74.94
16094;BME280;8151;47.824;12.092;2023-04-01T02:53:13;95119.38;;;8.56;75.05
16094;BME280;8151;47.824;12.092;2023-04-01T02:55:43;95126.25;;;8.57;74.69
16094;BME280;8151;47.824;12.092;2023-04-01T02:58:13;95126.09;;;8.58;75.16
16094;BME280;8151;47.824;12.092;2023-04-01T03:00:41;95137.06;;;8.62;75.25
16094;BME280;8151;47.824;12.092;2023-04-01T03:03:10;95123.16;;;8.68;75.22
16094;BME280;8151;47.824;12.092;2023-04-01T03:05:40;95130.69;;;8.71;74.21
16094;BME280;8151;47.824;12.092;2023-04-01T03:08:09;95125.25;;;8.73;74.51
16094;BME280;8151;47.824;12.092;2023-04-01T03:10:39;95133.97;;;8.73;75.14
16094;BME280;8151;47.824;12.092;2023-04-01T03:13:08;95138.44;;;8.73;74.94
16094;BME280;8151;47.824;12.092;2023-04-01T03:15:38;95147.31;;;8.72;74.71
16094;BME280;8151;47.824;12.092;2023-04-01T03:18:06;95147.72;;;8.69;75.23
16094;BME280;8151;47.824;12.092;2023-04-01T03:20:34;95155.63;;;8.69;74.66
16094;BME280;8151;47.824;12.092;2023-04-01T03:23:03;95152.53;;;8.65;74.95
16094;BME280;8151;47.824;12.092;2023-04-01T03:25:31;95161.25;;;8.65;74.76
16094;BME280;8151;47.824;12.092;2023-04-01T03:28:00;95152.72;;;8.63;74.88
16094;BME280;8151;47.824;12.092;2023-04-01T03:30:30;95151.91;;;8.63;74.66
16094;BME280;8151;47.824;12.092;2023-04-01T03:32:59;95143.16;;;8.62;74.31
16094;BME280;8151;47.824;12.092;2023-04-01T03:35:27;95151.91;;;8.63;74.32
16094;BME280;8151;47.824;12.092;2023-04-01T03:37:56;95151.91;;;8.63;74.08
16094;BME280;8151;47.824;12.092;2023-04-01T03:40:25;95149.91;;;8.65;74.12
16094;BME280;8151;47.824;12.092;2023-04-01T03:42:54;95157.81;;;8.65;73.62
16094;BME280;8151;47.824;12.092;2023-04-01T03:45:23;95145.63;;;8.64;73.83
16094;BME280;8151;47.824;12.092;2023-04-01T03:47:58;95145.25;;;8.67;73.81
16094;BME280;8151;47.824;12.092;2023-04-01T03:50:27;95140.78;;;8.67;73.86
16094;BME280;8151;47.824;12.092;2023-04-01T03:52:58;95141.59;;;8.68;73.73
16094;BME280;8151;47.824;12.092;2023-04-01T03:55:26;95147.72;;;8.69;73.48
16094;BME280;8151;47.824;12.092;2023-04-01T03:57:55;95147.50;;;8.70;73.46
16094;BME280;8151;47.824;12.092;2023-04-01T04:00:23;95155.41;;;8.70;73.28
16094;BME280;8151;47.824;12.092;2023-04-01T04:02:51;95154.59;;;8.70;73.64
16094;BME280;8151;47.824;12.092;2023-04-01T04:05:22;95154.78;;;8.68;73.60
16094;BME280;8151;47.824;12.092;2023-04-01T04:07:50;95158.25;;;8.69;73.36
16094;BME280;8151;47.824;12.092;2023-04-01T04:10:20;95153.78;;;8.69;73.24
16094;BME280;8151;47.824;12.092;2023-04-01T04:12:52;95143.25;;;8.69;73.46
16094;BME280;8151;47.824;12.092;2023-04-01T04:15:21;95146.69;;;8.70;73.67
16094;BME280;8151;47.824;12.092;2023-04-01T04:17:50;95151.78;;;8.71;73.22
16094;BME280;8151;47.824;12.092;2023-04-01T04:20:18;95156.25;;;8.71;73.20
16094;BME280;8151;47.824;12.092;2023-04-01T04:22:48;95160.91;;;8.69;73.14
16094;BME280;8151;47.824;12.092;2023-04-01T04:25:17;95139.34;;;8.65;73.13
16094;BME280;8151;47.824;12.092;2023-04-01T04:27:45;95163.91;;;8.65;73.19
16094;BME280;8151;47.824;12.092;2023-04-01T04:30:14;95150.25;;;8.62;73.19
16094;BME280;8151;47.824;12.092;2023-04-01T04:32:43;95160.19;;;8.60;73.09
16094;BME280;8151;47.824;12.092;2023-04-01T04:35:11;95158.91;;;8.56;73.37
16094;BME280;8151;47.824;12.092;2023-04-01T04:37:40;95160.94;;;8.54;73.03
16094;BME280;8151;47.824;12.092;2023-04-01T04:40:10;95173.94;;;8.55;73.13
16094;BME280;8151;47.824;12.092;2023-04-01T04:42:39;95170.28;;;8.56;73.37
16094;BME280;8151;47.824;12.092;2023-04-01T04:45:08;95160.53;;;8.57;73.31
16094;BME280;8151;47.824;12.092;2023-04-01T04:47:37;95166.66;;;8.57;73.60
16094;BME280;8151;47.824;12.092;2023-04-01T04:50:07;95165.44;;;8.60;73.42
16094;BME280;8151;47.824;12.092;2023-04-01T04:52:35;95166.09;;;8.62;73.29
16094;BME280;8151;47.824;12.092;2023-04-01T04:55:05;95165.50;;;8.66;73.40
16094;BME280;8151;47.824;12.092;2023-04-01T04:57:35;95159.44;;;8.66;73.09
16094;BME280;8151;47.824;12.092;2023-04-01T05:00:04;95166.97;;;8.69;72.97
16094;BME280;8151;47.824;12.092;2023-04-01T05:02:33;95173.50;;;8.73;73.52
16094;BME280;8151;47.824;12.092;2023-04-01T05:05:02;95164.78;;;8.73;73.23
16094;BME280;8151;47.824;12.092;2023-04-01T05:07:31;95169.22;;;8.72;73.65
16094;BME280;8151;47.824;12.092;2023-04-01T05:09:59;95159.31;;;8.74;73.03
16094;BME280;8151;47.824;12.092;2023-04-01T05:12:28;95164.41;;;8.76;73.53
16094;BME280;8151;47.824;12.092;2023-04-01T05:14:58;95158.94;;;8.77;73.50
16094;BME280;8151;47.824;12.092;2023-04-01T05:17:26;95157.75;;;8.80;73.28
16094;BME280;8151;47.824;12.092;2023-04-01T05:19:54;95160.84;;;8.83;73.65
16094;BME280;8151;47.824;12.092;2023-04-01T05:22:23;95171.84;;;8.87;73.27
16094;BME280;8151;47.824;12.092;2023-04-01T05:24:51;95173.28;;;8.90;73.53
16094;BME280;8151;47.824;12.092;2023-04-01T05:27:20;95174.75;;;8.92;73.43
16094;BME280;8151;47.824;12.092;2023-04-01T05:29:48;95176.00;;;8.96;73.42
16094;BME280;8151;47.824;12.092;2023-04-01T05:32:18;95175.41;;;9.01;73.97
16094;BME280;8151;47.824;12.092;2023-04-01T05:34:46;95167.50;;;9.01;73.64
16094;BME280;8151;47.824;12.092;2023-04-01T05:37:28;95177.06;;;9.02;73.68
16094;BME280;8151;47.824;12.092;2023-04-01T05:39:56;95172.59;;;9.02;73.98
16094;BME280;8151;47.824;12.092;2023-04-01T05:42:25;95177.88;;;9.02;73.58
16094;BME280;8151;47.824;12.092;2023-04-01T05:44:54;95180.50;;;9.02;73.83
16094;BME280;8151;47.824;12.092;2023-04-01T05:47:24;95188.88;;;9.06;73.84
16094;BME280;8151;47.824;12.092;2023-04-01T05:49:53;95181.94;;;9.05;73.76
16094;BME280;8151;47.824;12.092;2023-04-01T05:52:22;95186.06;;;9.07;73.59
16094;BME280;8151;47.824;12.092;2023-04-01T05:54:50;95197.41;;;9.08;73.69
16094;BME280;8151;47.824;12.092;2023-04-01T05:57:19;95194.16;;;9.06;73.29
16094;BME280;8151;47.824;12.092;2023-04-01T05:59:48;95189.88;;;9.05;72.98
16094;BME280;8151;47.824;12.092;2023-04-01T06:02:17;95193.13;;;9.07;72.82
16094;BME280;8151;47.824;12.092;2023-04-01T06:04:47;95187.50;;;9.10;72.33
16094;BME280;8151;47.824;12.092;2023-04-01T06:07:17;95187.31;;;9.12;72.49
16094;BME280;8151;47.824;12.092;2023-04-01T06:09:49;95188.75;;;9.14;71.94
16094;BME280;8151;47.824;12.092;2023-04-01T06:12:37;95185.13;;;9.15;71.65
16094;BME280;8151;47.824;12.092;2023-04-01T06:15:18;95180.25;;;9.19;71.92
16094;BME280;8151;47.824;12.092;2023-04-01T06:18:18;95183.16;;;9.24;71.30
16094;BME280;8151;47.824;12.092;2023-04-01T06:21:01;95187.88;;;9.29;70.81
16094;BME280;8151;47.824;12.092;2023-04-01T06:23:45;95183.84;;;9.33;70.68
16094;BME280;8151;47.824;12.092;2023-04-01T06:26:24;95190.38;;;9.37;70.48
16094;BME280;8151;47.824;12.092;2023-04-01T06:29:32;95181.09;;;9.41;70.27
16094;BME280;8151;47.824;12.092;2023-04-01T06:32:13;95184.97;;;9.45;70.64
16094;BME280;8151;47.824;12.092;2023-04-01T06:35:17;95185.59;;;9.47;70.27
16094;BME280;8151;47.824;12.092;2023-04-01T06:38:04;95187.66;;;9.52;69.71
16094;BME280;8151;47.824;12.092;2023-04-01T06:40:48;95183.00;;;9.54;70.53
16094;BME280;8151;47.824;12.092;2023-04-01T06:43:29;95186.06;;;9.57;70.08
16094;BME280;8151;47.824;12.092;2023-04-01T06:46:07;95174.78;;;9.63;69.61
16094;BME280;8151;47.824;12.092;2023-04-01T06:49:02;95179.06;;;9.71;69.21
16094;BME280;8151;47.824;12.092;2023-04-01T06:51:40;95164.50;;;9.75;69.13
16094;BME280;8151;47.824;12.092;2023-04-01T06:54:20;95165.34;;;9.82;69.11
16094;BME280;8151;47.824;12.092;2023-04-01T06:56:52;95160.94;;;9.90;69.10
16094;BME280;8151;47.824;12.092;2023-04-01T06:59:25;95161.34;;;9.93;69.51
16094;BME280;8151;47.824;12.092;2023-04-01T07:01:58;95166.63;;;9.93;68.88
16094;BME280;8151;47.824;12.092;2023-04-01T07:04:29;95155.28;;;9.93;68.98
16094;BME280;8151;47.824;12.092;2023-04-01T07:07:01;95159.16;;;9.97;68.43
16094;BME280;8151;47.824;12.092;2023-04-01T07:09:38;95160.19;;;10.02;69.02
16094;BME280;8151;47.824;12.092;2023-04-01T07:12:19;95148.03;;;10.08;68.41
16094;BME280;8151;47.824;12.092;2023-04-01T07:14:50;95159.84;;;10.12;68.51
16094;BME280;8151;47.824;12.092;2023-04-01T07:17:23;95157.41;;;10.17;68.50
16094;BME280;8151;47.824;12.092;2023-04-01T07:19:59;95156.84;;;10.22;68.87
16094;BME280;8151;47.824;12.092;2023-04-01T07:22:32;95156.63;;;10.23;68.61
16094;BME280;8151;47.824;12.092;2023-04-01T07:25:11;95164.00;;;10.28;68.21
16094;BME280;8151;47.824;12.092;2023-04-01T07:27:44;95164.47;;;10.32;68.50
16094;BME280;8151;47.824;12.092;2023-04-01T07:30:17;95167.31;;;10.37;68.27
16094;BME280;8151;47.824;12.092;2023-04-01T07:32:48;95176.28;;;10.42;67.53
16094;BME280;8151;47.824;12.092;2023-04-01T07:35:26;95178.78;;;10.51;67.35
16094;BME280;8151;47.824;12.092;2023-04-01T07:38:11;95187.72;;;10.56;67.61
16094;BME280;8151;47.824;12.092;2023-04-01T07:40:48;95181.88;;;10.61;67.09
16094;BME280;8151;47.824;12.092;2023-04-01T07:43:34;95191.03;;;10.65;67.02
16094;BME280;8151;47.824;12.092;2023-04-01T07:46:17;95189.81;;;10.68;66.62
16094;BME280;8151;47.824;12.092;2023-04-01T07:48:56;95196.16;;;10.73;66.67
16094;BME280;8151;47.824;12.092;2023-04-01T07:51:29;95195.78;;;10.76;66.50
16094;BME280;8151;47.824;12.092;2023-04-01T07:54:04;95195.34;;;10.79;66.58
16094;BME280;8151;47.824;12.092;2023-04-01T07:56:42;95203.91;;;10.81;65.79
16094;BME280;8151;47.824;12.092;2023-04-01T07:59:17;95203.72;;;10.83;65.67
16094;BME280;8151;47.824;12.092;2023-04-01T08:01:53;95197.44;;;10.91;65.03
16094;BME280;8151;47.824;12.092;2023-04-01T08:04:40;95186.28;;;10.95;64.90
16094;BME280;8151;47.824;12.092;2023-04-01T08:07:18;95189.94;;;11.01;64.66
16094;BME280;8151;47.824;12.092;2023-04-01T08:09:54;95189.53;;;11.11;64.46
16094;BME280;8151;47.824;12.092;2023-04-01T08:12:35;95193.84;;;11.18;64.08
16094;BME280;8151;47.824;12.092;2023-04-01T08:15:13;95189.19;;;11.27;63.72
16094;BME280;8151;47.824;12.092;2023-04-01T08:17:57;95186.75;;;11.32;63.45
16094;BME280;8151;47.824;12.092;2023-04-01T08:20:33;95180.22;;;11.41;63.35
16094;BME280;8151;47.824;12.092;2023-04-01T08:23:06;95181.66;;;11.51;63.32
16094;BME280;8151;47.824;12.092;2023-04-01T08:25:40;95173.50;;;11.59;63.25
16094;BME280;8151;47.824;12.092;2023-04-01T08:28:19;95172.50;;;11.67;62.79
16094;BME280;8151;47.824;12.092;2023-04-01T08:30:52;95162.09;;;11.72;62.82
16094;BME280;8151;47.824;12.092;2023-04-01T08:33:25;95173.53;;;11.79;62.41
16094;BME280;8151;47.824;12.092;2023-04-01T08:35:57;95170.06;;;11.85;61.96
16094;BME280;8151;47.824;12.092;2023-04-01T08:38:30;95167.59;;;11.90;61.74
16094;BME280;8151;47.824;12.092;2023-04-01T08:41:09;95165.78;;;11.97;61.69
16094;BME280;8151;47.824;12.092;2023-04-01T08:47:13;95161.06;;;12.19;60.96
16094;BME280;8151;47.824;12.092;2023-04-01T08:52:41;95155.13;;;12.24;61.16
16094;BME280;8151;47.824;12.092;2023-04-01T08:55:25;95150.63;;;12.31;60.67
16094;BME280;8151;47.824;12.092;2023-04-01T08:58:37;95155.25;;;12.43;60.05
16094;BME280;8151;47.824;12.092;2023-04-01T09:01:17;95146.44;;;12.55;60.04
16094;BME280;8151;47.824;12.092;2023-04-01T09:04:15;95161.50;;;12.61;59.08
16094;BME280;8151;47.824;12.092;2023-04-01T09:07:00;95148.66;;;12.65;59.31
16094;BME280;8151;47.824;12.092;2023-04-01T09:09:53;95152.50;;;12.76;58.35
16094;BME280;8151;47.824;12.092;2023-04-01T09:12:54;95155.09;;;12.83;58.29
16094;BME280;8151;47.824;12.092;2023-04-01T09:15:53;95151.78;;;12.94;57.94
16094;BME280;8151;47.824;12.092;2023-04-01T09:18:49;95145.41;;;13.02;57.74
16094;BME280;8151;47.824;12.092;2023-04-01T09:21:52;95161.88;;;13.10;57.45
16094;BME280;8151;47.824;12.092;2023-04-01T09:24:44;95150.44;;;13.10;57.88
16094;BME280;8151;47.824;12.092;2023-04-01T09:27:27;95140.44;;;13.12;57.42
16094;BME280;8151;47.824;12.092;2023-04-01T09:36:16;95121.47;;;13.40;56.83
16094;BME280;8151;47.824;12.092;2023-04-01T09:38:56;95127.28;;;13.55;56.07
16094;BME280;8151;47.824;12.092;2023-04-01T09:41:29;95115.94;;;13.67;55.48
16094;BME280;8151;47.824;12.092;2023-04-01T09:44:03;95139.81;;;13.73;54.92
16094;BME280;8151;47.824;12.092;2023-04-01T09:46:42;95127.31;;;13.74;54.35
16094;BME280;8151;47.824;12.092;2023-04-01T09:49:37;95130.56;;;13.76;53.17
16094;BME280;8151;47.824;12.092;2023-04-01T09:52:29;95124.06;;;13.72;53.70
16094;BME280;8151;47.824;12.092;2023-04-01T09:55:21;95131.25;;;13.71;53.29
16094;BME280;8151;47.824;12.092;2023-04-01T10:01:18;95119.34;;;13.74;53.44
16094;BME280;8151;47.824;12.092;2023-04-01T10:07:09;95101.16;;;13.96;52.66
16094;BME280;8151;47.824;12.092;2023-04-01T10:10:16;95097.59;;;14.02;52.09
16094;BME280;8151;47.824;12.092;2023-04-01T10:16:05;95107.16;;;14.10;51.79
16094;BME280;8151;47.824;12.092;2023-04-01T10:18:52;95096.50;;;14.10;51.72
16094;BME280;8151;47.824;12.092;2023-04-01T10:25:02;95094.44;;;14.12;51.81
16094;BME280;8151;47.824;12.092;2023-04-01T10:27:52;95091.25;;;14.03;51.20
16094;BME280;8151;47.824;12.092;2023-04-01T10:33:41;95099.13;;;13.91;51.53
16094;BME280;8151;47.824;12.092;2023-04-01T10:36:38;95080.81;;;13.83;51.16
16094;BME280;8151;47.824;12.092;2023-04-01T10:39:33;95100.09;;;13.78;51.01
16094;BME280;8151;47.824;12.092;2023-04-01T10:48:29;95083.19;;;13.91;51.42
16094;BME280;8151;47.824;12.092;2023-04-01T10:51:14;95082.97;;;13.93;51.24
16094;BME280;8151;47.824;12.092;2023-04-01T10:54:09;95072.53;;;13.91;50.50
16094;BME280;8151;47.824;12.092;2023-04-01T10:56:51;95074.25;;;13.86;51.33
16094;BME280;8151;47.824;12.092;2023-04-01T11:03:05;95065.63;;;13.90;50.53
16094;BME280;8151;47.824;12.092;2023-04-01T11:09:13;95074.09;;;13.81;50.81
16094;BME280;8151;47.824;12.092;2023-04-01T11:18:21;95062.41;;;13.63;50.55
16094;BME280;8151;47.824;12.092;2023-04-01T11:21:21;95072.06;;;13.57;50.29
16094;BME280;8151;47.824;12.092;2023-04-01T11:24:18;95086.44;;;13.50;49.89
16094;BME280;8151;47.824;12.092;2023-04-01T11:26:53;95087.31;;;13.44;50.81
16094;BME280;8151;47.824;12.092;2023-04-01T11:29:44;95085.31;;;13.39;50.24
16094;BME280;8151;47.824;12.092;2023-04-01T11:32:46;95094.53;;;13.36;50.09
16094;BME280;8151;47.824;12.092;2023-04-01T11:35:38;95093.72;;;13.36;50.00
16094;BME280;8151;47.824;12.092;2023-04-01T11:38:19;95096.59;;;13.34;50.01
16094;BME280;8151;47.824;12.092;2023-04-01T11:41:00;95094.53;;;13.36;50.17
16094;BME280;8151;47.824;12.092;2023-04-01T11:43:36;95101.25;;;13.39;50.28
16094;BME280;8151;47.824;12.092;2023-04-01T11:46:10;95096.09;;;13.44;50.10
16094;BME280;8151;47.824;12.092;2023-04-01T11:48:55;95088.94;;;13.45;49.72
16094;BME280;8151;47.824;12.092;2023-04-01T11:51:47;95099.16;;;13.48;49.56
16094;BME280;8151;47.824;12.092;2023-04-01T11:54:28;95105.47;;;13.47;49.57
16094;BME280;8151;47.824;12.092;2023-04-01T11:57:15;95097.97;;;13.44;49.56
16094;BME280;8151;47.824;12.092;2023-04-01T12:00:00;95099.56;;;13.45;49.63
16094;BME280;8151;47.824;12.092;2023-04-01T12:02:42;95103.03;;;13.45;49.66
16094;BME280;8151;47.824;12.092;2023-04-01T12:11:12;95110.47;;;13.62;50.12
16094;BME280;8151;47.824;12.092;2023-04-01T12:13:50;95103.91;;;13.64;50.02
16094;BME280;8151;47.824;12.092;2023-04-01T12:16:32;95121.31;;;13.60;49.94
16094;BME280;8151;47.824;12.092;2023-04-01T12:19:10;95122.59;;;13.51;49.83
16094;BME280;8151;47.824;12.092;2023-04-01T12:21:51;95132.03;;;13.47;49.94
16094;BME280;8151;47.824;12.092;2023-04-01T12:24:46;95132.09;;;13.40;49.57
16094;BME280;8151;47.824;12.092;2023-04-01T12:27:38;95126.41;;;13.36;49.63
16094;BME280;8151;47.824;12.092;2023-04-01T12:30:24;95138.44;;;13.39;49.77
16094;BME280;8151;47.824;12.092;2023-04-01T12:35:58;95150.00;;;13.51;50.22
16094;BME280;8151;47.824;12.092;2023-04-01T12:38:36;95152.31;;;13.41;50.29
16094;BME280;8151;47.824;12.092;2023-04-01T12:41:15;95165.66;;;13.28;50.50
16094;BME280;8151;47.824;12.092;2023-04-01T12:44:01;95178.41;;;13.12;50.70
16094;BME280;8151;47.824;12.092;2023-04-01T12:46:54;95172.81;;;12.95;50.80
16094;BME280;8151;47.824;12.092;2023-04-01T12:52:42;95166.31;;;12.85;51.27
16094;BME280;8151;47.824;12.092;2023-04-01T12:55:37;95163.41;;;12.93;51.17
16094;BME280;8151;47.824;12.092;2023-04-01T12:58:45;95207.72;;;12.92;51.39
16094;BME280;8151;47.824;12.092;2023-04-01T13:01:29;95175.13;;;12.78;51.94
16094;BME280;8151;47.824;12.092;2023-04-01T13:04:21;95199.06;;;12.65;52.82
16094;BME280;8151;47.824;12.092;2023-04-01T13:07:01;95211.59;;;12.45;53.47
16094;BME280;8151;47.824;12.092;2023-04-01T13:09:42;95198.56;;;12.23;54.38
16094;BME280;8151;47.824;12.092;2023-04-01T13:12:48;95219.41;;;12.06;54.85
16094;BME280;8151;47.824;12.092;2023-04-01T13:15:35;95223.88;;;11.99;55.16
16094;BME280;8151;47.824;12.092;2023-04-01T13:18:15;95234.50;;;11.92;55.30
16094;BME280;8151;47.824;12.092;2023-04-01T13:20:55;95217.75;;;11.85;55.59
16094;BME280;8151;47.824;12.092;2023-04-01T13:23:42;95235.50;;;11.71;56.24
16094;BME280;8151;47.824;12.092;2023-04-01T13:26:18;95219.16;;;11.54;56.75
16094;BME280;8151;47.824;12.092;2023-04-01T13:28:55;95229.53;;;11.42;57.28
16094;BME280;8151;47.824;12.092;2023-04-01T13:31:42;95229.34;;;11.44;58.08
16094;BME280;8151;47.824;12.092;2023-04-01T13:34:27;95237.69;;;11.41;58.15
16094;BME280;8151;47.824;12.092;2023-04-01T13:37:14;95236.03;;;11.33;58.54
16094;BME280;8151;47.824;12.092;2023-04-01T13:40:00;95238.69;;;11.27;58.77
16094;BME280;8151;47.824;12.092;2023-04-01T13:42:47;95251.50;;;11.30;59.12
16094;BME280;8151;47.824;12.092;2023-04-01T13:45:21;95239.91;;;11.31;59.55
16094;BME280;8151;47.824;12.092;2023-04-01T13:50:59;95238.69;;;11.33;60.71
16094;BME280;8151;47.824;12.092;2023-04-01T13:53:42;95235.84;;;11.35;60.51
16094;BME280;8151;47.824;12.092;2023-04-01T13:56:23;95240.53;;;11.33;60.97
16094;BME280;8151;47.824;12.092;2023-04-01T13:59:25;95239.28;;;11.35;61.31
16094;BME280;8151;47.824;12.092;2023-04-01T14:02:03;95255.00;;;11.37;61.20
16094;BME280;8151;47.824;12.092;2023-04-01T14:04:53;95253.56;;;11.34;61.83
16094;BME280;8151;47.824;12.092;2023-04-01T14:07:43;95244.34;;;11.23;62.04
16094;BME280;8151;47.824;12.092;2023-04-01T14:10:28;95255.31;;;11.14;62.39
16094;BME280;8151;47.824;12.092;2023-04-01T14:13:05;95247.38;;;11.07;62.54
16094;BME280;8151;47.824;12.092;2023-04-01T14:15:56;95244.88;;;10.92;62.93
16094;BME280;8151;47.824;12.092;2023-04-01T14:18:37;95247.47;;;10.79;63.21
16094;BME280;8151;47.824;12.092;2023-04-01T14:21:20;95249.47;;;10.70;63.07
16094;BME280;8151;47.824;12.092;2023-04-01T14:24:16;95249.63;;;10.62;63.50
16094;BME280;8151;47.824;12.092;2023-04-01T14:33:27;95252.03;;;10.57;63.88
16094;BME280;8151;47.824;12.092;2023-04-01T14:36:18;95257.09;;;10.52;63.86
16094;BME280;8151;47.824;12.092;2023-04-01T14:39:00;95257.25;;;10.43;64.24
16094;BME280;8151;47.824;12.092;2023-04-01T14:41:45;95251.78;;;10.45;64.33
16094;BME280;8151;47.824;12.092;2023-04-01T14:44:27;95259.47;;;10.40;63.92
16094;BME280;8151;47.824;12.092;2023-04-01T14:50:09;95253.16;;;10.41;64.39
16094;BME280;8151;47.824;12.092;2023-04-01T14:52:42;95245.28;;;10.48;64.44
16094;BME280;8151;47.824;12.092;2023-04-01T14:55:21;95247.53;;;10.51;64.50
16094;BME280;8151;47.824;12.092;2023-04-01T14:58:09;95247.31;;;10.52;64.81
16094;BME280;8151;47.824;12.092;2023-04-01T15:01:00;95244.91;;;10.51;65.57
16094;BME280;8151;47.824;12.092;2023-04-01T15:03:39;95244.06;;;10.50;65.33
16094;BME280;8151;47.824;12.092;2023-04-01T15:09:26;95259.09;;;10.43;65.24
16094;BME280;8151;47.824;12.092;2023-04-01T15:12:06;95248.09;;;10.39;65.68
16094;BME280;8151;47.824;12.092;2023-04-01T15:14:43;95245.22;;;10.41;65.62
16094;BME280;8151;47.824;12.092;2023-04-01T15:17:31;95258.03;;;10.37;65.54
16094;BME280;8151;47.824;12.092;2023-04-01T15:20:23;95265.25;;;10.29;66.22